createdAt,value
2022-12-13T00:04:40.262Z,26.30
2022-12-13T00:09:43.734Z,25.27
2022-12-13T00:14:45.999Z,19.73
2022-12-13T00:19:49.034Z,24.08
2022-12-13T00:24:51.531Z,26.48
2022-12-13T00:29:53.787Z,22.55
2022-12-13T00:34:56.012Z,22.95
2022-12-13T00:39:58.387Z,21.15
2022-12-13T00:45:00.664Z,17.70
2022-12-13T00:50:04.248Z,17.35
2022-12-13T00:55:07.267Z,14.75
2022-12-13T01:00:10.454Z,12.43
2022-12-13T01:05:24.036Z,10.10
2022-12-13T01:10:37.738Z,10.80
2022-12-13T01:15:47.837Z,10.43
2022-12-13T01:26:07.066Z,9.07
2022-12-13T01:31:11.940Z,7.32
2022-12-13T01:36:17.249Z,4.72
2022-12-13T01:41:27.247Z,4.82
2022-12-13T01:46:31.918Z,5.00
2022-12-13T01:51:44.981Z,5.50
2022-12-13T01:56:53.830Z,2.60
2022-12-13T02:02:03.784Z,3.90
2022-12-13T02:07:07.587Z,2.40
2022-12-13T02:12:10.068Z,1.60
2022-12-13T02:17:49.549Z,8.20
2022-12-13T02:23:36.026Z,5.05
2022-12-13T02:28:47.423Z,1.60
2022-12-13T02:34:17.506Z,3.97
2022-12-13T02:39:30.389Z,5.47
2022-12-13T02:44:42.590Z,8.05
2022-12-13T02:49:49.633Z,6.75
2022-12-13T02:54:53.984Z,2.97
2022-12-13T02:59:58.838Z,8.02
2022-12-13T03:05:57.743Z,7.68
2022-12-13T03:11:14.260Z,6.30
2022-12-13T03:16:26.081Z,8.10
2022-12-13T03:21:28.929Z,5.68
2022-12-13T03:26:31.382Z,4.20
2022-12-13T03:31:33.949Z,4.03
2022-12-13T03:36:36.378Z,3.25
2022-12-13T03:41:38.820Z,1.90
2022-12-13T03:46:41.264Z,3.50
2022-12-13T03:51:43.699Z,2.97
2022-12-13T03:56:46.053Z,4.32
2022-12-13T04:01:49.037Z,1.73
2022-12-13T04:06:51.363Z,3.65
2022-12-13T04:12:12.319Z,2.88
2022-12-13T04:17:14.715Z,4.68
2022-12-13T04:22:23.269Z,5.22
2022-12-13T04:32:29.262Z,5.90
2022-12-13T04:37:31.929Z,6.25
2022-12-13T04:42:34.620Z,9.38
2022-12-13T04:47:36.892Z,4.05
2022-12-13T04:52:40.086Z,5.32
2022-12-13T04:57:42.599Z,13.25
2022-12-13T05:02:44.984Z,6.97
2022-12-13T05:07:47.264Z,4.82
2022-12-13T05:12:49.586Z,4.20
2022-12-13T05:17:51.978Z,11.13
2022-12-13T05:22:59.331Z,13.35
2022-12-13T05:28:09.149Z,17.83
2022-12-13T05:33:25.008Z,16.13
2022-12-13T05:38:27.446Z,8.50
2022-12-13T05:43:43.156Z,6.43
2022-12-13T05:48:46.038Z,32.80
2022-12-13T05:53:53.073Z,23.00
2022-12-13T05:58:55.894Z,11.60
2022-12-13T06:03:58.290Z,10.93
2022-12-13T06:09:00.812Z,17.33
2022-12-13T06:14:03.100Z,23.88
2022-12-13T06:19:05.522Z,21.42
2022-12-13T06:24:09.226Z,19.70
2022-12-13T06:29:11.719Z,29.95
2022-12-13T06:34:15.465Z,14.52
2022-12-13T06:39:18.188Z,17.25
2022-12-13T06:44:20.620Z,18.08
2022-12-13T06:49:22.827Z,17.10
2022-12-13T06:54:25.142Z,20.50
2022-12-13T06:59:27.526Z,19.15
2022-12-13T07:04:31.103Z,24.58
2022-12-13T07:09:33.953Z,30.80
2022-12-13T07:14:40.713Z,25.88
2022-12-13T07:19:44.306Z,22.35
2022-12-13T07:24:46.890Z,21.75
2022-12-13T07:29:49.417Z,57.42
2022-12-13T07:34:51.722Z,33.03
2022-12-13T07:40:02.651Z,30.20
2022-12-13T07:45:06.413Z,27.00
2022-12-13T07:50:13.842Z,29.30
2022-12-13T07:55:33.018Z,19.95
2022-12-13T08:00:40.902Z,19.33
2022-12-13T08:05:48.636Z,16.95
2022-12-13T08:10:51.135Z,12.55
2022-12-13T08:15:59.578Z,14.32
2022-12-13T08:21:23.964Z,26.70
2022-12-13T08:26:29.348Z,11.43
2022-12-13T08:31:34.061Z,12.20
2022-12-13T08:36:36.442Z,14.95
2022-12-13T08:41:39.425Z,11.52
2022-12-13T08:46:42.046Z,12.52
2022-12-13T08:51:44.306Z,10.60
2022-12-13T08:56:46.486Z,12.77
2022-12-13T09:01:53.726Z,9.65
2022-12-13T09:06:56.868Z,7.40
2022-12-13T09:12:11.091Z,17.35
2022-12-13T09:17:26.418Z,7.35
2022-12-13T09:22:33.553Z,9.43
2022-12-13T09:27:39.980Z,8.93
2022-12-13T09:32:43.943Z,15.73
2022-12-13T09:37:46.450Z,7.22
2022-12-13T09:43:08.280Z,11.88
2022-12-13T09:48:22.319Z,10.43
2022-12-13T09:53:25.865Z,9.25
2022-12-13T09:58:37.641Z,9.00
2022-12-13T10:03:44.660Z,14.27
2022-12-13T10:08:59.256Z,14.15
2022-12-13T10:14:22.293Z,14.77
2022-12-13T10:19:41.400Z,21.30
2022-12-13T10:24:54.716Z,13.98
2022-12-13T10:30:01.282Z,10.55
2022-12-13T10:35:38.427Z,13.32
2022-12-13T10:40:45.764Z,13.63
2022-12-13T10:46:00.003Z,16.58
2022-12-13T10:51:09.560Z,14.55
2022-12-13T10:56:12.388Z,10.10
2022-12-13T11:01:22.541Z,13.70
2022-12-13T11:06:27.137Z,10.63
2022-12-13T11:11:30.939Z,18.95
2022-12-13T11:16:38.023Z,17.35
2022-12-13T11:21:40.297Z,13.45
2022-12-13T11:26:53.928Z,15.82
2022-12-13T11:32:02.995Z,7.90
2022-12-13T11:37:05.266Z,10.20
2022-12-13T11:42:25.822Z,11.45
2022-12-13T11:47:36.395Z,9.18
2022-12-13T11:52:50.254Z,10.18
2022-12-13T11:59:01.127Z,9.88
2022-12-13T12:03:59.604Z,14.80
2022-12-13T12:09:05.101Z,13.65
2022-12-13T12:14:36.889Z,12.77
2022-12-13T12:19:41.432Z,11.90
2022-12-13T12:24:52.238Z,11.05
2022-12-13T12:30:08.367Z,13.30
2022-12-13T12:35:45.799Z,11.90
2022-12-13T12:41:16.025Z,10.73
2022-12-13T12:47:01.573Z,13.43
2022-12-13T12:52:21.898Z,10.68
2022-12-13T12:57:51.315Z,16.80
2022-12-13T13:02:56.313Z,12.88
2022-12-13T13:08:14.782Z,11.90
2022-12-13T13:13:35.711Z,10.63
2022-12-13T13:18:49.883Z,10.02
2022-12-13T13:24:10.816Z,13.65
2022-12-13T13:29:27.767Z,12.98
2022-12-13T13:34:43.385Z,7.97
2022-12-13T13:40:02.033Z,8.50
2022-12-13T13:45:21.054Z,13.00
2022-12-13T13:50:46.558Z,9.52
2022-12-13T13:56:16.746Z,14.80
2022-12-13T14:01:31.222Z,9.57
2022-12-13T14:06:51.714Z,7.82
2022-12-13T14:12:30.387Z,6.47
2022-12-13T14:17:54.253Z,6.75
2022-12-13T14:23:21.480Z,8.57
2022-12-13T14:28:45.029Z,17.77
2022-12-13T14:33:48.323Z,20.00
2022-12-13T14:39:00.811Z,9.88
2022-12-13T14:44:27.363Z,13.50
2022-12-13T14:49:48.702Z,11.00
2022-12-13T14:54:58.085Z,12.93
2022-12-13T15:00:21.134Z,12.45
2022-12-13T15:05:51.084Z,11.10
2022-12-13T15:11:08.068Z,16.87
2022-12-13T15:16:26.132Z,13.23
2022-12-13T15:21:28.465Z,12.50
2022-12-13T15:26:32.748Z,15.40
2022-12-13T15:31:35.137Z,18.80
2022-12-13T15:36:39.178Z,19.58
2022-12-13T15:41:49.789Z,12.32
2022-12-13T15:46:53.717Z,27.02
2022-12-13T15:51:58.022Z,21.90
2022-12-13T15:57:00.198Z,18.35
2022-12-13T16:02:06.803Z,17.83
2022-12-13T16:07:22.997Z,24.75
2022-12-13T16:13:01.163Z,36.15
2022-12-13T16:18:19.887Z,18.48
2022-12-13T16:23:29.169Z,16.58
2022-12-13T16:28:31.550Z,16.17
2022-12-13T16:33:34.434Z,22.65
2022-12-13T16:38:37.408Z,18.35
2022-12-13T16:44:02.131Z,16.98
2022-12-13T16:49:18.218Z,21.10
2022-12-13T16:54:24.639Z,16.05
2022-12-13T16:59:28.613Z,13.88
2022-12-13T17:04:30.847Z,11.00
2022-12-13T17:09:35.515Z,14.05
2022-12-13T17:14:37.867Z,14.73
2022-12-13T17:19:40.124Z,10.93
2022-12-13T17:24:42.437Z,10.68
2022-12-13T17:29:44.964Z,8.70
2022-12-13T17:34:47.269Z,13.88
2022-12-13T17:39:50.214Z,12.00
2022-12-13T17:44:52.624Z,9.82
2022-12-13T17:49:54.898Z,10.68
2022-12-13T17:54:57.167Z,9.45
2022-12-13T18:00:00.370Z,14.15
2022-12-13T18:05:02.629Z,11.90
2022-12-13T18:10:05.518Z,12.20
2022-12-13T18:15:08.361Z,12.70
2022-12-13T18:20:12.007Z,9.75
2022-12-13T18:25:14.318Z,16.65
2022-12-13T18:30:16.681Z,15.23
2022-12-13T18:35:19.503Z,19.00
2022-12-13T18:40:21.779Z,13.32
2022-12-13T18:45:24.028Z,16.08
2022-12-13T18:50:26.348Z,17.65
2022-12-13T18:55:28.826Z,17.05
2022-12-13T19:00:31.581Z,23.90
2022-12-13T19:05:34.096Z,26.35
2022-12-13T19:10:36.513Z,23.48
2022-12-13T19:15:42.020Z,22.35
2022-12-13T19:20:48.876Z,33.17
2022-12-13T19:25:51.387Z,28.50
2022-12-13T19:30:53.750Z,40.60
2022-12-13T19:35:55.984Z,27.95
2022-12-13T19:40:58.319Z,40.35
2022-12-13T19:46:01.842Z,28.50
2022-12-13T19:51:07.416Z,21.83
2022-12-13T19:56:14.287Z,22.60
2022-12-13T20:01:17.902Z,24.02
2022-12-13T20:06:23.312Z,24.40
2022-12-13T20:11:25.719Z,22.77
2022-12-13T20:16:31.068Z,23.67
2022-12-13T20:21:33.546Z,26.30
2022-12-13T20:26:36.110Z,22.77
2022-12-13T20:31:40.421Z,22.10
2022-12-13T20:36:43.735Z,20.33
2022-12-13T20:41:45.968Z,25.67
2022-12-13T20:46:48.346Z,23.95
2022-12-13T20:51:51.058Z,27.48
2022-12-13T20:56:53.401Z,24.88
2022-12-13T21:01:55.737Z,31.23
2022-12-13T21:06:58.906Z,27.67
2022-12-13T21:12:01.179Z,26.77
2022-12-13T21:17:05.307Z,27.42
2022-12-13T21:22:07.617Z,24.23
2022-12-13T21:27:09.902Z,29.02
2022-12-13T21:32:12.195Z,34.50
2022-12-13T21:37:14.629Z,29.77
2022-12-13T21:42:16.913Z,36.33
2022-12-13T21:47:19.858Z,27.55
2022-12-13T21:52:24.492Z,32.17
2022-12-13T21:57:45.151Z,39.95
2022-12-13T22:02:47.567Z,40.78
2022-12-13T22:07:52.245Z,35.60
2022-12-13T22:12:54.594Z,40.60
2022-12-13T22:17:58.454Z,45.90
2022-12-13T22:23:00.817Z,58.08
2022-12-13T22:28:03.146Z,24.52
2022-12-13T22:33:05.444Z,18.67
2022-12-13T22:38:07.961Z,10.43
2022-12-13T22:43:10.498Z,17.63
2022-12-13T22:48:12.902Z,11.20
2022-12-13T22:53:15.079Z,19.35
2022-12-13T22:58:17.337Z,10.77
2022-12-13T23:03:19.616Z,11.55
2022-12-13T23:08:22.043Z,13.65
2022-12-13T23:13:24.268Z,10.00
2022-12-13T23:18:26.826Z,8.50
2022-12-13T23:23:30.633Z,6.90
2022-12-13T23:28:32.849Z,9.00
2022-12-13T23:33:35.986Z,8.20
2022-12-13T23:38:38.225Z,9.45
2022-12-13T23:43:41.846Z,11.98
2022-12-13T23:48:44.743Z,7.88
2022-12-13T23:53:47.309Z,12.38
2022-12-13T23:58:52.459Z,6.70
